Jefferson, NC

6:23 PM EST on November 23, 2017 (GMT -0500)
Ashe County

Weather History for KGEV - January, 2007

Change the Weather History Date:

Tuesday, January 9, 2007

  Actual Average Record
Temperature  
Mean Temperature 36 °F -  
Max Temperature 42 °F 42 °F 60 °F (1975)
Min Temperature 30 °F 20 °F -8 °F (1970)
Degree Days  
Heating Degree Days 29    
Moisture  
Dew Point 16 °F    
Average Humidity 50    
Maximum Humidity 80    
Minimum Humidity 25    
Precipitation  
Precipitation 0.00 in - - ()
Sea Level Pressure  
Sea Level Pressure 29.92 in    
Wind  
Wind Speed 16 mph (West)    
Max Wind Speed 30 mph    
Max Gust Speed 43 mph    
Visibility 7 miles    
Events Snow    
Averages and records for this station are not official NWS values.
T = Trace of Precipitation, MM = Missing Value Source: NWS Daily Summary

Daily Weather History Graph

Daily Weather History Graph

Search for Another Location

Airport or City:

Trip Planner

Search our weather history database for the weather conditions in past years. The results will help you decide how hot, cold, wet, or windy it might be!

Date:

Astronomy

Jan. 09, 2007 Rise Set
Actual Time 7:37 AM EST 5:27 PM EST
Civil Twilight 7:09 AM EST 5:56 PM EST
Nautical Twilight 6:37 AM EST 6:28 PM EST
Astronomical Twilight 6:06 AM EST 6:59 PM EST
Moon 11:34 PM EST (1/9) 11:02 AM EST (1/9)
Length of Visible Light 10h 46m
Length of Day
9h 50m
Waning Gibbous, 67% of the Moon is Illuminated
Jan 9
Waning Gibbous
Jan 11
Last Quarter
Jan 18
New
Jan 25
First Quarter
Feb 2
Full

Hourly Weather History & Observations

Time (EST) Temp. Windchill Dew Point Humidity Pressure Visibility Wind Dir Wind Speed Gust Speed Precip Events Conditions
12:01 AM 33.8 °F 23.9 °F 1.4 °F 25% 29.97 in 10.0 mi West 15.0 mph 20.7 mph N/A   Clear
12:21 AM 33.8 °F 23.5 °F 1.4 °F 25% 29.96 in 10.0 mi West 16.1 mph 23.0 mph N/A   Clear
12:41 AM 33.8 °F 23.5 °F 1.4 °F 25% 29.95 in 10.0 mi West 16.1 mph 21.9 mph N/A   Clear
1:01 AM 33.8 °F 22.8 °F 3.2 °F 28% 29.96 in 10.0 mi West 18.4 mph 27.6 mph N/A   Clear
1:21 AM 33.8 °F 23.2 °F 3.2 °F 28% 29.95 in 10.0 mi West 17.3 mph 32.2 mph N/A   Clear
1:41 AM 33.8 °F 23.9 °F 3.2 °F 28% 29.96 in 10.0 mi West 15.0 mph 25.3 mph N/A   Scattered Clouds
2:01 AM 33.8 °F 24.8 °F 5.0 °F 30% 29.96 in 10.0 mi West 12.7 mph 21.9 mph N/A   Mostly Cloudy
2:21 AM 33.8 °F 23.2 °F 5.0 °F 30% 29.96 in 10.0 mi West 17.3 mph 27.6 mph N/A   Scattered Clouds
2:41 AM 33.8 °F 24.3 °F 6.8 °F 32% 29.96 in 10.0 mi West 13.8 mph 31.1 mph N/A   Clear
3:03 AM 33.8 °F 22.5 °F 6.8 °F 32% 29.95 in 10.0 mi West 19.6 mph 27.6 mph N/A   Clear
3:21 AM 33.8 °F 24.8 °F 6.8 °F 32% 29.95 in 10.0 mi West 12.7 mph 21.9 mph N/A   Clear
3:41 AM 33.8 °F 24.3 °F 8.6 °F 35% 29.94 in 10.0 mi West 13.8 mph 24.2 mph N/A   Clear
4:02 AM 33.8 °F 24.8 °F 8.6 °F 35% 29.94 in 10.0 mi West 12.7 mph 23.0 mph N/A   Clear
4:23 AM 33.8 °F 23.9 °F 8.6 °F 35% 29.93 in 10.0 mi West 15.0 mph 20.7 mph N/A   Clear
4:41 AM 33.8 °F 23.9 °F 8.6 °F 35% 29.93 in 10.0 mi West 15.0 mph 24.2 mph N/A   Clear
5:01 AM 33.8 °F 23.2 °F 8.6 °F 35% 29.92 in 10.0 mi West 17.3 mph 25.3 mph N/A   Clear
5:21 AM 33.8 °F 24.8 °F 10.4 °F 38% 29.92 in 10.0 mi West 12.7 mph 26.5 mph N/A   Clear
6:03 AM 33.8 °F 23.5 °F 12.2 °F 41% 29.92 in 10.0 mi West 16.1 mph 23.0 mph N/A   Clear
6:21 AM 33.8 °F 24.8 °F 12.2 °F 41% 29.92 in 10.0 mi West 12.7 mph 23.0 mph N/A   Clear
6:41 AM 33.8 °F 25.3 °F 12.2 °F 41% 29.92 in 10.0 mi West 11.5 mph 24.2 mph N/A   Clear
7:01 AM 33.8 °F 24.8 °F 14.0 °F 44% 29.92 in 10.0 mi West 12.7 mph 23.0 mph N/A   Clear
7:21 AM 33.8 °F 27.0 °F 14.0 °F 44% 29.92 in 10.0 mi West 8.1 mph 19.6 mph N/A   Clear
7:41 AM 33.8 °F 25.8 °F 14.0 °F 44% 29.91 in 10.0 mi West 10.4 mph - N/A   Clear
8:01 AM 35.6 °F 27.1 °F 15.8 °F 44% 29.89 in 10.0 mi West 12.7 mph 21.9 mph N/A   Clear
8:22 AM 35.6 °F 28.0 °F 15.8 °F 44% 29.89 in 10.0 mi West 10.4 mph 16.1 mph N/A   Clear
8:41 AM 37.4 °F 29.8 °F 17.6 °F 45% 29.88 in 10.0 mi West 11.5 mph 17.3 mph N/A   Clear
9:01 AM 37.4 °F 31.4 °F 15.8 °F 41% 29.88 in 10.0 mi West 8.1 mph - N/A   Scattered Clouds
9:22 AM 39.2 °F 35.9 °F 15.8 °F 39% 29.87 in 10.0 mi West 4.6 mph - N/A   Scattered Clouds
9:41 AM 39.2 °F 32.5 °F 15.8 °F 39% 29.88 in 10.0 mi West 10.4 mph 17.3 mph N/A   Clear
10:01 AM 39.2 °F 32.0 °F 15.8 °F 39% 29.87 in 10.0 mi West 11.5 mph - N/A   Clear
10:21 AM 41.0 °F 35.2 °F 15.8 °F 36% 29.86 in 10.0 mi WSW 9.2 mph - N/A   Clear
10:41 AM 42.8 °F 37.0 °F 15.8 °F 34% 29.85 in 10.0 mi West 10.4 mph 18.4 mph N/A   Clear
11:01 AM 41.0 °F 31.1 °F 17.6 °F 39% 29.86 in 10.0 mi West 23.0 mph 27.6 mph N/A   Scattered Clouds
11:22 AM 33.8 °F 23.5 °F 26.6 °F 75% 29.88 in 0.2 mi West 16.1 mph 31.1 mph N/A Snow Snow
11:41 AM 33.8 °F 22.2 °F 26.6 °F 75% 29.87 in 0.5 mi West 20.7 mph 27.6 mph N/A Snow Snow
12:02 PM 33.8 °F 23.9 °F 26.6 °F 75% 29.86 in 0.2 mi West 15.0 mph 24.2 mph N/A Snow Snow
12:21 PM 33.8 °F 20.5 °F 26.6 °F 75% 29.83 in 0.5 mi West 27.6 mph 35.7 mph N/A Snow Snow
12:41 PM 33.8 °F 20.1 °F 24.8 °F 70% 29.82 in 0.2 mi West 29.9 mph 42.6 mph N/A Snow Snow
1:01 PM 33.8 °F 20.5 °F 24.8 °F 70% 29.83 in 0.8 mi West 27.6 mph 38.0 mph N/A Snow Light Snow
1:22 PM 33.8 °F 21.9 °F 24.8 °F 70% 29.84 in 2.0 mi WNW 21.9 mph 29.9 mph N/A Snow Light Snow
1:42 PM 33.8 °F 21.9 °F 24.8 °F 70% 29.84 in 1.5 mi WNW 21.9 mph 33.4 mph N/A Snow Light Snow
2:01 PM 33.8 °F 21.9 °F 21.2 °F 60% 29.85 in 5.0 mi WNW 21.9 mph 31.1 mph N/A Snow Light Snow
2:21 PM 33.8 °F 23.9 °F 21.2 °F 60% 29.87 in 5.0 mi WNW 15.0 mph 28.8 mph N/A   Overcast
2:41 PM 33.8 °F 22.8 °F 21.2 °F 60% 29.87 in 10.0 mi West 18.4 mph 25.3 mph N/A   Overcast
3:01 PM 33.8 °F 22.2 °F 21.2 °F 60% 29.87 in 10.0 mi West 20.7 mph 29.9 mph N/A   Overcast
3:21 PM 33.8 °F 21.9 °F 21.2 °F 60% 29.88 in 10.0 mi West 21.9 mph 29.9 mph N/A   Overcast
4:02 PM 30.2 °F 18.5 °F 24.8 °F 80% 29.92 in 0.2 mi NW 17.3 mph 32.2 mph N/A Snow Light Snow
4:21 PM 33.8 °F 23.9 °F 21.2 °F 60% 29.93 in 10.0 mi WNW 15.0 mph 23.0 mph N/A   Scattered Clouds
4:41 PM 33.8 °F 22.8 °F 21.2 °F 60% 29.94 in 5.0 mi WNW 18.4 mph 27.6 mph N/A Snow Light Snow
5:01 PM 33.8 °F 24.3 °F 21.2 °F 60% 29.96 in 10.0 mi West 13.8 mph 31.1 mph N/A Snow Light Snow
5:21 PM 33.8 °F 22.2 °F 21.2 °F 60% 29.96 in 7.0 mi WNW 20.7 mph 34.5 mph N/A Snow Light Snow
6:02 PM 33.8 °F 23.2 °F 21.2 °F 60% 29.97 in 10.0 mi WNW 17.3 mph 31.1 mph N/A   Overcast
6:21 PM 33.8 °F 21.9 °F 21.2 °F 60% 29.98 in 7.0 mi WNW 21.9 mph 28.8 mph N/A Snow Light Snow
6:41 PM 30.2 °F 17.4 °F 21.2 °F 69% 29.98 in 1.2 mi WNW 20.7 mph 26.5 mph N/A Snow Light Snow
7:01 PM 30.2 °F 18.5 °F 19.4 °F 64% 29.99 in 4.0 mi WNW 17.3 mph 40.3 mph N/A Snow Light Snow
7:21 PM 30.2 °F 18.5 °F 23.0 °F 75% 30.00 in 0.8 mi WNW 17.3 mph 27.6 mph N/A Snow Snow
8:01 PM 30.2 °F 21.3 °F 19.4 °F 64% 30.02 in 5.0 mi WNW 10.4 mph 26.5 mph N/A Snow Light Snow
8:21 PM 30.2 °F 19.3 °F 21.2 °F 69% 30.02 in 3.0 mi WNW 15.0 mph 23.0 mph N/A Snow Light Snow
9:01 PM 30.2 °F 16.2 °F 19.4 °F 64% 30.02 in 1.8 mi WNW 25.3 mph 42.6 mph N/A Snow Light Snow
9:21 PM 30.2 °F 17.8 °F 17.6 °F 60% 30.03 in 3.0 mi West 19.6 mph 33.4 mph N/A Snow Light Snow
10:01 PM 30.2 °F 16.8 °F 15.8 °F 55% 30.04 in 4.0 mi WNW 23.0 mph 36.8 mph N/A Snow Light Snow
10:21 PM 28.4 °F 13.8 °F 14.0 °F 55% 30.04 in 2.5 mi WNW 25.3 mph 40.3 mph N/A   Haze
10:41 PM 28.4 °F 17.0 °F 14.0 °F 55% 30.06 in 4.0 mi WNW 15.0 mph 39.1 mph N/A   Scattered Clouds
11:02 PM 28.4 °F 12.5 °F 12.2 °F 51% 30.05 in 3.0 mi WNW 31.1 mph 40.3 mph N/A Snow Light Snow
11:21 PM 28.4 °F 16.6 °F 10.4 °F 47% 30.06 in 7.0 mi NW 16.1 mph 34.5 mph N/A   Scattered Clouds
11:41 PM 28.4 °F 15.4 °F 12.2 °F 51% 30.04 in 10.0 mi NW 19.6 mph 29.9 mph N/A Snow Light Snow